sensor_id;sensor_type;location;lat;lon;timestamp;P1;durP1;ratioP1;P2;durP2;ratioP2
49910;SDS011;35803;53.096;5.844;2023-02-28T00:00:06;3.97;;;2.42;;
49910;SDS011;35803;53.096;5.844;2023-02-28T00:02:39;11.93;;;2.50;;
49910;SDS011;35803;53.096;5.844;2023-02-28T00:05:06;7.22;;;2.80;;
49910;SDS011;35803;53.096;5.844;2023-02-28T00:07:33;3.67;;;2.17;;
49910;SDS011;35803;53.096;5.844;2023-02-28T00:09:59;6.93;;;2.90;;
49910;SDS011;35803;53.096;5.844;2023-02-28T00:12:25;4.50;;;2.28;;
49910;SDS011;35803;53.096;5.844;2023-02-28T00:14:51;4.88;;;2.47;;
49910;SDS011;35803;53.096;5.844;2023-02-28T00:17:16;6.20;;;2.67;;
49910;SDS011;35803;53.096;5.844;2023-02-28T00:19:49;6.20;;;3.00;;
49910;SDS011;35803;53.096;5.844;2023-02-28T00:22:16;4.78;;;2.75;;
49910;SDS011;35803;53.096;5.844;2023-02-28T00:24:42;5.53;;;2.47;;
49910;SDS011;35803;53.096;5.844;2023-02-28T00:27:08;5.93;;;2.88;;
49910;SDS011;35803;53.096;5.844;2023-02-28T00:29:34;5.10;;;2.30;;
49910;SDS011;35803;53.096;5.844;2023-02-28T00:31:59;5.10;;;2.60;;
49910;SDS011;35803;53.096;5.844;2023-02-28T00:34:25;5.07;;;2.85;;
49910;SDS011;35803;53.096;5.844;2023-02-28T00:36:50;5.05;;;2.55;;
49910;SDS011;35803;53.096;5.844;2023-02-28T00:39:16;8.52;;;2.63;;
49910;SDS011;35803;53.096;5.844;2023-02-28T00:41:42;5.25;;;2.67;;
49910;SDS011;35803;53.096;5.844;2023-02-28T00:44:07;5.13;;;2.33;;
49910;SDS011;35803;53.096;5.844;2023-02-28T00:46:33;6.00;;;2.60;;
49910;SDS011;35803;53.096;5.844;2023-02-28T00:48:58;3.05;;;2.38;;
49910;SDS011;35803;53.096;5.844;2023-02-28T00:51:24;6.65;;;2.30;;
49910;SDS011;35803;53.096;5.844;2023-02-28T00:53:49;5.30;;;2.22;;
49910;SDS011;35803;53.096;5.844;2023-02-28T00:56:15;5.18;;;2.30;;
49910;SDS011;35803;53.096;5.844;2023-02-28T00:58:40;8.07;;;2.50;;
49910;SDS011;35803;53.096;5.844;2023-02-28T01:01:06;5.82;;;2.30;;
49910;SDS011;35803;53.096;5.844;2023-02-28T01:03:32;5.50;;;2.17;;
49910;SDS011;35803;53.096;5.844;2023-02-28T01:05:57;5.78;;;2.10;;
49910;SDS011;35803;53.096;5.844;2023-02-28T01:08:23;7.22;;;2.38;;
49910;SDS011;35803;53.096;5.844;2023-02-28T01:10:49;2.40;;;1.90;;
49910;SDS011;35803;53.096;5.844;2023-02-28T01:13:15;5.38;;;2.00;;
49910;SDS011;35803;53.096;5.844;2023-02-28T01:15:41;4.97;;;2.33;;
49910;SDS011;35803;53.096;5.844;2023-02-28T01:18:10;7.78;;;2.28;;
49910;SDS011;35803;53.096;5.844;2023-02-28T01:20:36;4.28;;;2.20;;
49910;SDS011;35803;53.096;5.844;2023-02-28T01:23:02;3.78;;;2.08;;
49910;SDS011;35803;53.096;5.844;2023-02-28T01:25:28;6.70;;;1.98;;
49910;SDS011;35803;53.096;5.844;2023-02-28T01:27:53;6.10;;;2.45;;
49910;SDS011;35803;53.096;5.844;2023-02-28T01:30:19;5.80;;;2.33;;
49910;SDS011;35803;53.096;5.844;2023-02-28T01:32:44;11.50;;;2.40;;
49910;SDS011;35803;53.096;5.844;2023-02-28T01:35:10;3.42;;;1.98;;
49910;SDS011;35803;53.096;5.844;2023-02-28T01:37:36;5.68;;;1.95;;
49910;SDS011;35803;53.096;5.844;2023-02-28T01:40:01;5.30;;;1.85;;
49910;SDS011;35803;53.096;5.844;2023-02-28T01:42:27;4.47;;;2.00;;
49910;SDS011;35803;53.096;5.844;2023-02-28T01:45:08;2.75;;;1.63;;
49910;SDS011;35803;53.096;5.844;2023-02-28T01:47:44;4.50;;;2.00;;
49910;SDS011;35803;53.096;5.844;2023-02-28T01:50:14;4.35;;;2.28;;
49910;SDS011;35803;53.096;5.844;2023-02-28T01:52:43;2.22;;;2.03;;
49910;SDS011;35803;53.096;5.844;2023-02-28T01:55:09;2.20;;;1.73;;
49910;SDS011;35803;53.096;5.844;2023-02-28T01:57:36;3.15;;;1.75;;
49910;SDS011;35803;53.096;5.844;2023-02-28T02:00:05;3.13;;;1.73;;
49910;SDS011;35803;53.096;5.844;2023-02-28T02:02:34;7.53;;;1.98;;
49910;SDS011;35803;53.096;5.844;2023-02-28T02:05:08;4.80;;;1.90;;
49910;SDS011;35803;53.096;5.844;2023-02-28T02:07:37;7.05;;;2.13;;
49910;SDS011;35803;53.096;5.844;2023-02-28T02:26:40;3.67;;;2.40;;
49910;SDS011;35803;53.096;5.844;2023-02-28T02:32:55;2.47;;;1.88;;
49910;SDS011;35803;53.096;5.844;2023-02-28T02:37:40;5.20;;;2.65;;
49910;SDS011;35803;53.096;5.844;2023-02-28T02:40:22;4.35;;;2.42;;
49910;SDS011;35803;53.096;5.844;2023-02-28T02:42:51;3.85;;;1.92;;
49910;SDS011;35803;53.096;5.844;2023-02-28T02:47:50;4.10;;;2.13;;
49910;SDS011;35803;53.096;5.844;2023-02-28T02:50:19;5.03;;;2.00;;
49910;SDS011;35803;53.096;5.844;2023-02-28T02:52:49;7.72;;;2.30;;
49910;SDS011;35803;53.096;5.844;2023-02-28T02:55:17;3.92;;;2.10;;
49910;SDS011;35803;53.096;5.844;2023-02-28T02:57:45;4.65;;;2.53;;
49910;SDS011;35803;53.096;5.844;2023-02-28T03:00:12;8.10;;;2.45;;
49910;SDS011;35803;53.096;5.844;2023-02-28T03:02:39;6.60;;;2.25;;
49910;SDS011;35803;53.096;5.844;2023-02-28T03:05:13;7.57;;;2.50;;
49910;SDS011;35803;53.096;5.844;2023-02-28T03:07:43;8.10;;;2.30;;
49910;SDS011;35803;53.096;5.844;2023-02-28T03:13:18;5.55;;;2.10;;
49910;SDS011;35803;53.096;5.844;2023-02-28T03:27:35;1.95;;;1.75;;
49910;SDS011;35803;53.096;5.844;2023-02-28T03:30:17;2.83;;;1.85;;
49910;SDS011;35803;53.096;5.844;2023-02-28T03:32:54;9.32;;;1.83;;
49910;SDS011;35803;53.096;5.844;2023-02-28T03:35:37;3.58;;;1.88;;
49910;SDS011;35803;53.096;5.844;2023-02-28T03:38:07;1.40;;;1.30;;
49910;SDS011;35803;53.096;5.844;2023-02-28T03:41:00;4.97;;;2.08;;
49910;SDS011;35803;53.096;5.844;2023-02-28T03:43:31;3.10;;;1.63;;
49910;SDS011;35803;53.096;5.844;2023-02-28T03:45:59;2.60;;;1.77;;
49910;SDS011;35803;53.096;5.844;2023-02-28T03:48:34;3.17;;;1.80;;
49910;SDS011;35803;53.096;5.844;2023-02-28T03:51:04;3.15;;;1.70;;
49910;SDS011;35803;53.096;5.844;2023-02-28T03:53:34;5.95;;;2.00;;
49910;SDS011;35803;53.096;5.844;2023-02-28T03:56:05;4.40;;;2.20;;
49910;SDS011;35803;53.096;5.844;2023-02-28T03:58:42;4.93;;;2.22;;
49910;SDS011;35803;53.096;5.844;2023-02-28T04:01:15;3.58;;;1.88;;
49910;SDS011;35803;53.096;5.844;2023-02-28T04:03:46;4.45;;;2.03;;
49910;SDS011;35803;53.096;5.844;2023-02-28T04:06:16;2.90;;;1.70;;
49910;SDS011;35803;53.096;5.844;2023-02-28T04:08:43;4.15;;;2.05;;
49910;SDS011;35803;53.096;5.844;2023-02-28T04:13:49;5.07;;;2.42;;
49910;SDS011;35803;53.096;5.844;2023-02-28T04:16:15;6.60;;;2.30;;
49910;SDS011;35803;53.096;5.844;2023-02-28T04:18:41;4.80;;;2.10;;
49910;SDS011;35803;53.096;5.844;2023-02-28T04:21:10;3.30;;;2.25;;
49910;SDS011;35803;53.096;5.844;2023-02-28T04:23:36;4.43;;;2.10;;
49910;SDS011;35803;53.096;5.844;2023-02-28T04:26:01;3.42;;;2.13;;
49910;SDS011;35803;53.096;5.844;2023-02-28T04:28:27;7.30;;;2.78;;
49910;SDS011;35803;53.096;5.844;2023-02-28T04:30:57;3.58;;;2.60;;
49910;SDS011;35803;53.096;5.844;2023-02-28T04:33:23;10.35;;;2.47;;
49910;SDS011;35803;53.096;5.844;2023-02-28T04:35:57;4.22;;;2.17;;
49910;SDS011;35803;53.096;5.844;2023-02-28T04:38:23;4.95;;;2.28;;
49910;SDS011;35803;53.096;5.844;2023-02-28T04:40:49;4.35;;;2.47;;
49910;SDS011;35803;53.096;5.844;2023-02-28T04:43:14;6.45;;;2.30;;
49910;SDS011;35803;53.096;5.844;2023-02-28T04:45:40;5.88;;;2.42;;
49910;SDS011;35803;53.096;5.844;2023-02-28T04:48:05;3.25;;;2.10;;
49910;SDS011;35803;53.096;5.844;2023-02-28T04:50:31;6.25;;;2.28;;
49910;SDS011;35803;53.096;5.844;2023-02-28T04:52:56;5.00;;;2.45;;
49910;SDS011;35803;53.096;5.844;2023-02-28T04:55:22;7.82;;;2.50;;
49910;SDS011;35803;53.096;5.844;2023-02-28T04:57:47;4.03;;;2.22;;
49910;SDS011;35803;53.096;5.844;2023-02-28T05:00:13;3.13;;;2.13;;
49910;SDS011;35803;53.096;5.844;2023-02-28T05:02:42;4.63;;;2.00;;
49910;SDS011;35803;53.096;5.844;2023-02-28T05:05:07;4.53;;;2.58;;
49910;SDS011;35803;53.096;5.844;2023-02-28T05:07:33;5.15;;;2.75;;
49910;SDS011;35803;53.096;5.844;2023-02-28T05:09:59;5.85;;;2.42;;
49910;SDS011;35803;53.096;5.844;2023-02-28T05:12:25;3.60;;;2.63;;
49910;SDS011;35803;53.096;5.844;2023-02-28T05:14:50;5.50;;;2.72;;
49910;SDS011;35803;53.096;5.844;2023-02-28T05:17:15;3.20;;;2.22;;
49910;SDS011;35803;53.096;5.844;2023-02-28T05:19:41;2.55;;;2.00;;
49910;SDS011;35803;53.096;5.844;2023-02-28T05:22:12;4.15;;;2.22;;
49910;SDS011;35803;53.096;5.844;2023-02-28T05:24:39;3.25;;;2.40;;
49910;SDS011;35803;53.096;5.844;2023-02-28T05:27:04;3.40;;;2.67;;
49910;SDS011;35803;53.096;5.844;2023-02-28T05:29:30;6.68;;;4.13;;
49910;SDS011;35803;53.096;5.844;2023-02-28T05:31:55;9.52;;;5.07;;
49910;SDS011;35803;53.096;5.844;2023-02-28T05:34:21;7.85;;;5.63;;
49910;SDS011;35803;53.096;5.844;2023-02-28T05:36:46;8.57;;;4.80;;
49910;SDS011;35803;53.096;5.844;2023-02-28T05:39:12;7.28;;;4.40;;
49910;SDS011;35803;53.096;5.844;2023-02-28T05:41:38;7.32;;;3.95;;
49910;SDS011;35803;53.096;5.844;2023-02-28T05:44:07;6.53;;;4.28;;
49910;SDS011;35803;53.096;5.844;2023-02-28T05:46:33;9.63;;;4.38;;
49910;SDS011;35803;53.096;5.844;2023-02-28T05:48:59;5.95;;;3.78;;
49910;SDS011;35803;53.096;5.844;2023-02-28T05:51:25;5.85;;;3.38;;
49910;SDS011;35803;53.096;5.844;2023-02-28T05:53:51;6.20;;;4.15;;
49910;SDS011;35803;53.096;5.844;2023-02-28T05:56:17;5.15;;;3.58;;
49910;SDS011;35803;53.096;5.844;2023-02-28T05:58:42;4.97;;;3.55;;
49910;SDS011;35803;53.096;5.844;2023-02-28T06:03:58;8.02;;;3.70;;
49910;SDS011;35803;53.096;5.844;2023-02-28T06:06:25;6.63;;;4.30;;
49910;SDS011;35803;53.096;5.844;2023-02-28T06:08:50;4.80;;;3.50;;
49910;SDS011;35803;53.096;5.844;2023-02-28T06:11:16;6.97;;;3.75;;
49910;SDS011;35803;53.096;5.844;2023-02-28T06:13:41;5.75;;;4.35;;
49910;SDS011;35803;53.096;5.844;2023-02-28T06:16:08;6.40;;;4.05;;
49910;SDS011;35803;53.096;5.844;2023-02-28T06:18:35;6.65;;;5.07;;
49910;SDS011;35803;53.096;5.844;2023-02-28T06:21:01;9.95;;;5.95;;
49910;SDS011;35803;53.096;5.844;2023-02-28T06:23:27;10.65;;;5.10;;
49910;SDS011;35803;53.096;5.844;2023-02-28T06:25:52;9.57;;;5.40;;
49910;SDS011;35803;53.096;5.844;2023-02-28T06:28:18;9.98;;;6.03;;
49910;SDS011;35803;53.096;5.844;2023-02-28T06:30:44;10.50;;;5.90;;
49910;SDS011;35803;53.096;5.844;2023-02-28T06:33:09;9.00;;;5.70;;
49910;SDS011;35803;53.096;5.844;2023-02-28T06:35:35;9.95;;;5.65;;
49910;SDS011;35803;53.096;5.844;2023-02-28T06:38:00;9.20;;;5.53;;
49910;SDS011;35803;53.096;5.844;2023-02-28T06:40:26;12.90;;;6.20;;
49910;SDS011;35803;53.096;5.844;2023-02-28T06:42:51;9.55;;;5.40;;
49910;SDS011;35803;53.096;5.844;2023-02-28T06:45:17;11.02;;;5.60;;
49910;SDS011;35803;53.096;5.844;2023-02-28T06:47:43;11.93;;;6.82;;
49910;SDS011;35803;53.096;5.844;2023-02-28T06:50:11;11.10;;;5.43;;
49910;SDS011;35803;53.096;5.844;2023-02-28T06:52:38;10.27;;;6.13;;
49910;SDS011;35803;53.096;5.844;2023-02-28T06:55:04;13.35;;;5.97;;
49910;SDS011;35803;53.096;5.844;2023-02-28T06:57:31;13.23;;;6.47;;
49910;SDS011;35803;53.096;5.844;2023-02-28T06:59:58;12.50;;;6.25;;
49910;SDS011;35803;53.096;5.844;2023-02-28T07:02:24;14.50;;;6.47;;
49910;SDS011;35803;53.096;5.844;2023-02-28T07:04:50;11.60;;;6.47;;
49910;SDS011;35803;53.096;5.844;2023-02-28T07:07:15;9.95;;;5.90;;
49910;SDS011;35803;53.096;5.844;2023-02-28T07:09:42;12.85;;;6.63;;
49910;SDS011;35803;53.096;5.844;2023-02-28T07:12:07;11.88;;;6.88;;
49910;SDS011;35803;53.096;5.844;2023-02-28T07:14:32;10.95;;;6.45;;
49910;SDS011;35803;53.096;5.844;2023-02-28T07:16:58;11.82;;;7.00;;
49910;SDS011;35803;53.096;5.844;2023-02-28T07:19:23;12.45;;;7.18;;
49910;SDS011;35803;53.096;5.844;2023-02-28T07:21:49;11.23;;;6.45;;
49910;SDS011;35803;53.096;5.844;2023-02-28T07:24:14;14.23;;;7.00;;
49910;SDS011;35803;53.096;5.844;2023-02-28T07:26:43;13.65;;;7.40;;
49910;SDS011;35803;53.096;5.844;2023-02-28T07:29:08;16.10;;;7.57;;
49910;SDS011;35803;53.096;5.844;2023-02-28T07:31:34;13.57;;;7.70;;
49910;SDS011;35803;53.096;5.844;2023-02-28T07:33:59;13.63;;;8.23;;
49910;SDS011;35803;53.096;5.844;2023-02-28T07:36:25;16.23;;;8.45;;
49910;SDS011;35803;53.096;5.844;2023-02-28T07:38:50;16.38;;;8.50;;
49910;SDS011;35803;53.096;5.844;2023-02-28T07:41:17;14.52;;;7.75;;
49910;SDS011;35803;53.096;5.844;2023-02-28T07:43:44;16.00;;;7.85;;
49910;SDS011;35803;53.096;5.844;2023-02-28T07:46:11;17.90;;;10.20;;
49910;SDS011;35803;53.096;5.844;2023-02-28T07:48:40;16.15;;;8.07;;
49910;SDS011;35803;53.096;5.844;2023-02-28T07:51:06;16.27;;;8.38;;
49910;SDS011;35803;53.096;5.844;2023-02-28T07:53:32;16.02;;;8.48;;
49910;SDS011;35803;53.096;5.844;2023-02-28T07:55:58;15.07;;;7.68;;
49910;SDS011;35803;53.096;5.844;2023-02-28T07:58:25;18.77;;;8.02;;
49910;SDS011;35803;53.096;5.844;2023-02-28T08:00:51;18.33;;;8.90;;
49910;SDS011;35803;53.096;5.844;2023-02-28T08:03:17;16.70;;;9.73;;
49910;SDS011;35803;53.096;5.844;2023-02-28T08:05:44;15.70;;;7.85;;
49910;SDS011;35803;53.096;5.844;2023-02-28T08:08:09;18.33;;;8.73;;
49910;SDS011;35803;53.096;5.844;2023-02-28T08:10:35;18.88;;;8.57;;
49910;SDS011;35803;53.096;5.844;2023-02-28T08:13:00;15.93;;;8.27;;
49910;SDS011;35803;53.096;5.844;2023-02-28T08:15:26;17.48;;;8.30;;
49910;SDS011;35803;53.096;5.844;2023-02-28T08:17:51;14.40;;;8.25;;
49910;SDS011;35803;53.096;5.844;2023-02-28T08:20:17;17.42;;;8.77;;
49910;SDS011;35803;53.096;5.844;2023-02-28T08:22:43;16.45;;;8.10;;
49910;SDS011;35803;53.096;5.844;2023-02-28T08:25:08;17.10;;;8.75;;
49910;SDS011;35803;53.096;5.844;2023-02-28T08:27:35;15.23;;;8.65;;
49910;SDS011;35803;53.096;5.844;2023-02-28T08:30:00;19.45;;;10.05;;
49910;SDS011;35803;53.096;5.844;2023-02-28T08:32:26;18.45;;;9.05;;
49910;SDS011;35803;53.096;5.844;2023-02-28T08:34:51;16.00;;;8.63;;
49910;SDS011;35803;53.096;5.844;2023-02-28T08:37:17;16.92;;;8.75;;
49910;SDS011;35803;53.096;5.844;2023-02-28T08:39:42;18.30;;;9.57;;
49910;SDS011;35803;53.096;5.844;2023-02-28T08:42:08;21.27;;;10.77;;
49910;SDS011;35803;53.096;5.844;2023-02-28T08:44:33;17.75;;;9.18;;
49910;SDS011;35803;53.096;5.844;2023-02-28T08:46:59;22.80;;;12.00;;
49910;SDS011;35803;53.096;5.844;2023-02-28T08:49:25;21.77;;;10.40;;
49910;SDS011;35803;53.096;5.844;2023-02-28T08:51:50;20.35;;;10.10;;
49910;SDS011;35803;53.096;5.844;2023-02-28T08:54:16;20.55;;;9.98;;
49910;SDS011;35803;53.096;5.844;2023-02-28T08:56:45;18.67;;;9.23;;
49910;SDS011;35803;53.096;5.844;2023-02-28T08:59:19;19.85;;;9.50;;
49910;SDS011;35803;53.096;5.844;2023-02-28T09:01:44;18.80;;;10.98;;
49910;SDS011;35803;53.096;5.844;2023-02-28T09:04:10;17.67;;;10.48;;
49910;SDS011;35803;53.096;5.844;2023-02-28T09:06:36;21.83;;;11.73;;
49910;SDS011;35803;53.096;5.844;2023-02-28T09:09:02;19.83;;;10.38;;
49910;SDS011;35803;53.096;5.844;2023-02-28T09:11:31;23.42;;;12.73;;
49910;SDS011;35803;53.096;5.844;2023-02-28T09:13:57;23.17;;;10.75;;
49910;SDS011;35803;53.096;5.844;2023-02-28T09:16:24;22.27;;;10.35;;
49910;SDS011;35803;53.096;5.844;2023-02-28T09:18:49;19.20;;;9.60;;
49910;SDS011;35803;53.096;5.844;2023-02-28T09:21:16;17.52;;;8.73;;
49910;SDS011;35803;53.096;5.844;2023-02-28T09:23:47;16.67;;;9.07;;
49910;SDS011;35803;53.096;5.844;2023-02-28T09:26:34;16.23;;;9.35;;
49910;SDS011;35803;53.096;5.844;2023-02-28T09:28:59;15.73;;;9.82;;
49910;SDS011;35803;53.096;5.844;2023-02-28T09:31:26;16.00;;;8.70;;
49910;SDS011;35803;53.096;5.844;2023-02-28T09:33:54;20.08;;;8.73;;
49910;SDS011;35803;53.096;5.844;2023-02-28T09:36:22;16.60;;;9.68;;
49910;SDS011;35803;53.096;5.844;2023-02-28T09:38:49;15.90;;;8.80;;
49910;SDS011;35803;53.096;5.844;2023-02-28T09:41:23;19.33;;;10.35;;
49910;SDS011;35803;53.096;5.844;2023-02-28T09:43:55;17.98;;;9.25;;
49910;SDS011;35803;53.096;5.844;2023-02-28T09:49:19;16.45;;;8.65;;
49910;SDS011;35803;53.096;5.844;2023-02-28T09:51:59;15.70;;;8.43;;
49910;SDS011;35803;53.096;5.844;2023-02-28T09:54:28;17.75;;;9.25;;
49910;SDS011;35803;53.096;5.844;2023-02-28T10:05:22;18.33;;;10.45;;
49910;SDS011;35803;53.096;5.844;2023-02-28T10:13:04;19.75;;;11.27;;
49910;SDS011;35803;53.096;5.844;2023-02-28T10:15:32;15.82;;;8.45;;
49910;SDS011;35803;53.096;5.844;2023-02-28T10:18:00;16.45;;;9.25;;
49910;SDS011;35803;53.096;5.844;2023-02-28T10:20:29;15.07;;;8.45;;
49910;SDS011;35803;53.096;5.844;2023-02-28T10:25:45;16.38;;;8.20;;
49910;SDS011;35803;53.096;5.844;2023-02-28T10:28:15;15.95;;;7.75;;
49910;SDS011;35803;53.096;5.844;2023-02-28T10:30:47;12.93;;;7.28;;
49910;SDS011;35803;53.096;5.844;2023-02-28T10:33:17;11.77;;;6.70;;
49910;SDS011;35803;53.096;5.844;2023-02-28T10:35:49;13.23;;;6.80;;
49910;SDS011;35803;53.096;5.844;2023-02-28T10:38:19;10.63;;;6.25;;
49910;SDS011;35803;53.096;5.844;2023-02-28T10:40:47;9.90;;;5.80;;
49910;SDS011;35803;53.096;5.844;2023-02-28T10:45:39;9.25;;;5.03;;
49910;SDS011;35803;53.096;5.844;2023-02-28T10:58:30;6.20;;;4.18;;
49910;SDS011;35803;53.096;5.844;2023-02-28T11:00:59;6.97;;;4.25;;
49910;SDS011;35803;53.096;5.844;2023-02-28T11:05:53;7.20;;;3.78;;
49910;SDS011;35803;53.096;5.844;2023-02-28T11:08:19;5.38;;;3.30;;
49910;SDS011;35803;53.096;5.844;2023-02-28T11:10:55;4.65;;;3.10;;
49910;SDS011;35803;53.096;5.844;2023-02-28T11:13:25;5.50;;;3.00;;
49910;SDS011;35803;53.096;5.844;2023-02-28T11:15:53;4.30;;;2.72;;
49910;SDS011;35803;53.096;5.844;2023-02-28T11:18:21;6.18;;;3.42;;
49910;SDS011;35803;53.096;5.844;2023-02-28T11:20:50;6.22;;;3.35;;
49910;SDS011;35803;53.096;5.844;2023-02-28T11:23:17;5.78;;;3.40;;
49910;SDS011;35803;53.096;5.844;2023-02-28T11:25:50;7.22;;;3.53;;
49910;SDS011;35803;53.096;5.844;2023-02-28T11:28:26;4.82;;;2.97;;
49910;SDS011;35803;53.096;5.844;2023-02-28T11:36:12;5.10;;;3.50;;
49910;SDS011;35803;53.096;5.844;2023-02-28T11:38:40;5.65;;;3.13;;
49910;SDS011;35803;53.096;5.844;2023-02-28T11:47:24;5.78;;;3.70;;
49910;SDS011;35803;53.096;5.844;2023-02-28T11:52:48;4.10;;;3.08;;
49910;SDS011;35803;53.096;5.844;2023-02-28T11:55:31;4.05;;;2.67;;
49910;SDS011;35803;53.096;5.844;2023-02-28T12:01:48;5.20;;;3.05;;
49910;SDS011;35803;53.096;5.844;2023-02-28T12:10:01;5.88;;;3.53;;
49910;SDS011;35803;53.096;5.844;2023-02-28T12:26:52;6.20;;;3.20;;
49910;SDS011;35803;53.096;5.844;2023-02-28T12:29:21;5.30;;;2.42;;
49910;SDS011;35803;53.096;5.844;2023-02-28T12:34:38;4.18;;;2.83;;
49910;SDS011;35803;53.096;5.844;2023-02-28T12:37:09;4.10;;;2.53;;
49910;SDS011;35803;53.096;5.844;2023-02-28T12:39:39;5.43;;;3.00;;
49910;SDS011;35803;53.096;5.844;2023-02-28T12:42:12;4.05;;;2.67;;
49910;SDS011;35803;53.096;5.844;2023-02-28T12:44:52;4.82;;;2.90;;
49910;SDS011;35803;53.096;5.844;2023-02-28T12:47:22;6.75;;;2.85;;
49910;SDS011;35803;53.096;5.844;2023-02-28T12:52:22;4.72;;;3.45;;
49910;SDS011;35803;53.096;5.844;2023-02-28T12:54:56;3.90;;;3.10;;
49910;SDS011;35803;53.096;5.844;2023-02-28T12:57:39;5.88;;;3.40;;
49910;SDS011;35803;53.096;5.844;2023-02-28T13:00:15;6.95;;;3.35;;
49910;SDS011;35803;53.096;5.844;2023-02-28T13:03:02;8.90;;;3.03;;
49910;SDS011;35803;53.096;5.844;2023-02-28T13:13:57;5.70;;;3.08;;
49910;SDS011;35803;53.096;5.844;2023-02-28T13:16:46;5.63;;;3.50;;
49910;SDS011;35803;53.096;5.844;2023-02-28T13:19:16;6.32;;;3.60;;
49910;SDS011;35803;53.096;5.844;2023-02-28T13:21:43;6.00;;;3.88;;
49910;SDS011;35803;53.096;5.844;2023-02-28T13:24:10;5.47;;;3.10;;
49910;SDS011;35803;53.096;5.844;2023-02-28T13:34:28;4.57;;;3.25;;
49910;SDS011;35803;53.096;5.844;2023-02-28T13:47:43;6.13;;;3.65;;
49910;SDS011;35803;53.096;5.844;2023-02-28T13:50:19;4.53;;;3.13;;
49910;SDS011;35803;53.096;5.844;2023-02-28T14:01:11;4.30;;;2.72;;
49910;SDS011;35803;53.096;5.844;2023-02-28T14:06:29;5.50;;;3.30;;
49910;SDS011;35803;53.096;5.844;2023-02-28T14:09:02;3.92;;;2.80;;
49910;SDS011;35803;53.096;5.844;2023-02-28T14:11:41;4.63;;;3.10;;
49910;SDS011;35803;53.096;5.844;2023-02-28T14:14:07;5.05;;;3.10;;
49910;SDS011;35803;53.096;5.844;2023-02-28T14:16:44;4.70;;;3.70;;
49910;SDS011;35803;53.096;5.844;2023-02-28T14:19:12;6.03;;;3.30;;
49910;SDS011;35803;53.096;5.844;2023-02-28T14:21:47;4.93;;;3.08;;
49910;SDS011;35803;53.096;5.844;2023-02-28T14:27:32;5.28;;;3.47;;
49910;SDS011;35803;53.096;5.844;2023-02-28T14:38:46;4.75;;;2.95;;
49910;SDS011;35803;53.096;5.844;2023-02-28T14:43:53;4.88;;;2.80;;
49910;SDS011;35803;53.096;5.844;2023-02-28T14:46:22;4.43;;;3.13;;
49910;SDS011;35803;53.096;5.844;2023-02-28T14:48:49;5.75;;;3.22;;
49910;SDS011;35803;53.096;5.844;2023-02-28T14:51:19;5.45;;;3.30;;
49910;SDS011;35803;53.096;5.844;2023-02-28T14:53:48;5.63;;;3.22;;
49910;SDS011;35803;53.096;5.844;2023-02-28T14:56:19;4.90;;;2.83;;
49910;SDS011;35803;53.096;5.844;2023-02-28T14:58:50;5.82;;;3.25;;
49910;SDS011;35803;53.096;5.844;2023-02-28T15:01:18;4.15;;;2.97;;
49910;SDS011;35803;53.096;5.844;2023-02-28T15:03:46;4.72;;;3.25;;
49910;SDS011;35803;53.096;5.844;2023-02-28T15:06:15;4.68;;;3.25;;
49910;SDS011;35803;53.096;5.844;2023-02-28T15:08:43;5.35;;;3.30;;
49910;SDS011;35803;53.096;5.844;2023-02-28T15:11:13;5.43;;;3.30;;
49910;SDS011;35803;53.096;5.844;2023-02-28T15:13:41;5.75;;;3.65;;
49910;SDS011;35803;53.096;5.844;2023-02-28T15:16:12;4.90;;;3.35;;
49910;SDS011;35803;53.096;5.844;2023-02-28T15:21:07;4.70;;;3.35;;
49910;SDS011;35803;53.096;5.844;2023-02-28T15:23:37;4.72;;;3.15;;
49910;SDS011;35803;53.096;5.844;2023-02-28T15:26:06;6.18;;;3.78;;
49910;SDS011;35803;53.096;5.844;2023-02-28T15:28:32;7.15;;;3.53;;
49910;SDS011;35803;53.096;5.844;2023-02-28T15:30:58;4.93;;;2.83;;
49910;SDS011;35803;53.096;5.844;2023-02-28T15:33:27;6.10;;;3.40;;
49910;SDS011;35803;53.096;5.844;2023-02-28T15:36:10;4.85;;;3.25;;
49910;SDS011;35803;53.096;5.844;2023-02-28T15:38:39;5.68;;;3.45;;
49910;SDS011;35803;53.096;5.844;2023-02-28T15:41:04;5.75;;;3.58;;
49910;SDS011;35803;53.096;5.844;2023-02-28T15:43:37;4.55;;;3.10;;
49910;SDS011;35803;53.096;5.844;2023-02-28T15:48:36;5.28;;;3.15;;
49910;SDS011;35803;53.096;5.844;2023-02-28T15:51:08;4.70;;;2.90;;
49910;SDS011;35803;53.096;5.844;2023-02-28T15:56:40;4.95;;;2.80;;
49910;SDS011;35803;53.096;5.844;2023-02-28T15:59:13;4.38;;;2.90;;
49910;SDS011;35803;53.096;5.844;2023-02-28T16:01:45;4.97;;;3.03;;
49910;SDS011;35803;53.096;5.844;2023-02-28T16:04:15;4.35;;;3.17;;
49910;SDS011;35803;53.096;5.844;2023-02-28T16:06:42;4.10;;;2.92;;
49910;SDS011;35803;53.096;5.844;2023-02-28T16:09:10;3.97;;;2.78;;
49910;SDS011;35803;53.096;5.844;2023-02-28T16:11:39;5.65;;;3.33;;
49910;SDS011;35803;53.096;5.844;2023-02-28T16:14:09;6.80;;;3.25;;
49910;SDS011;35803;53.096;5.844;2023-02-28T16:16:41;5.90;;;3.65;;
49910;SDS011;35803;53.096;5.844;2023-02-28T16:19:07;5.30;;;3.58;;
49910;SDS011;35803;53.096;5.844;2023-02-28T16:21:33;4.78;;;3.15;;
49910;SDS011;35803;53.096;5.844;2023-02-28T16:23:59;4.65;;;3.38;;
49910;SDS011;35803;53.096;5.844;2023-02-28T16:26:24;5.05;;;3.13;;
49910;SDS011;35803;53.096;5.844;2023-02-28T16:28:52;4.03;;;3.15;;
49910;SDS011;35803;53.096;5.844;2023-02-28T16:31:18;5.20;;;3.40;;
49910;SDS011;35803;53.096;5.844;2023-02-28T16:33:44;3.35;;;3.05;;
49910;SDS011;35803;53.096;5.844;2023-02-28T16:36:14;3.70;;;2.97;;
49910;SDS011;35803;53.096;5.844;2023-02-28T16:38:44;5.40;;;3.03;;
49910;SDS011;35803;53.096;5.844;2023-02-28T16:41:11;4.78;;;3.25;;
49910;SDS011;35803;53.096;5.844;2023-02-28T16:43:43;5.05;;;3.15;;
49910;SDS011;35803;53.096;5.844;2023-02-28T16:46:11;5.63;;;3.38;;
49910;SDS011;35803;53.096;5.844;2023-02-28T16:48:37;5.07;;;3.38;;
49910;SDS011;35803;53.096;5.844;2023-02-28T16:51:04;5.53;;;3.90;;
49910;SDS011;35803;53.096;5.844;2023-02-28T16:53:30;6.25;;;3.35;;
49910;SDS011;35803;53.096;5.844;2023-02-28T16:55:55;6.60;;;4.03;;
49910;SDS011;35803;53.096;5.844;2023-02-28T16:58:21;5.57;;;3.58;;
49910;SDS011;35803;53.096;5.844;2023-02-28T17:00:50;4.45;;;3.20;;
49910;SDS011;35803;53.096;5.844;2023-02-28T17:03:20;5.28;;;3.30;;
49910;SDS011;35803;53.096;5.844;2023-02-28T17:05:47;6.28;;;3.90;;
49910;SDS011;35803;53.096;5.844;2023-02-28T17:08:12;7.85;;;4.28;;
49910;SDS011;35803;53.096;5.844;2023-02-28T17:10:38;6.43;;;4.30;;
49910;SDS011;35803;53.096;5.844;2023-02-28T17:13:03;8.75;;;4.70;;
49910;SDS011;35803;53.096;5.844;2023-02-28T17:15:29;6.38;;;4.40;;
49910;SDS011;35803;53.096;5.844;2023-02-28T17:17:56;10.52;;;5.82;;
49910;SDS011;35803;53.096;5.844;2023-02-28T17:20:22;8.00;;;5.25;;
49910;SDS011;35803;53.096;5.844;2023-02-28T17:22:48;10.13;;;6.63;;
49910;SDS011;35803;53.096;5.844;2023-02-28T17:25:21;11.00;;;6.22;;
49910;SDS011;35803;53.096;5.844;2023-02-28T17:27:47;15.23;;;7.65;;
49910;SDS011;35803;53.096;5.844;2023-02-28T17:30:14;12.68;;;6.43;;
49910;SDS011;35803;53.096;5.844;2023-02-28T17:32:42;9.32;;;5.82;;
49910;SDS011;35803;53.096;5.844;2023-02-28T17:35:07;7.10;;;5.15;;
49910;SDS011;35803;53.096;5.844;2023-02-28T17:37:33;12.10;;;6.30;;
49910;SDS011;35803;53.096;5.844;2023-02-28T17:39:59;10.90;;;6.85;;
49910;SDS011;35803;53.096;5.844;2023-02-28T17:42:25;9.10;;;5.85;;
49910;SDS011;35803;53.096;5.844;2023-02-28T17:44:50;8.32;;;5.32;;
49910;SDS011;35803;53.096;5.844;2023-02-28T17:47:16;9.38;;;4.97;;
49910;SDS011;35803;53.096;5.844;2023-02-28T17:49:42;8.27;;;5.05;;
49910;SDS011;35803;53.096;5.844;2023-02-28T17:52:10;8.43;;;4.82;;